UASS 031330Z 28004MPS 9999 SCT020 M13/M15 Q1029 NOSIG RMK QFE753/1005
QNH:(hPa/inHg/mmHg)1029 / 30.39 / 772
QFE:(hPa/inHg/mmHg)1001 / 29.55 / 751
Temperature-13
Dew Point-15
Visibility> 10000
Weather
Cloud CoverSCT (2000);
Transition Altitude10000 ft.
Transition LevelFL110
SQUAWK